map of WDG home
WDG - Airport
Location
City:  Enid, Oklahoma, United States
Name:Enid Woodring Regional
ICAO:KWDG
IATA:WDG
FAA LID:WDG

Details
Type:Airport (Airfield)
Use:Public/Civil
Latitude:3622'33"N (36.375944)
Longitude:9747'22"W (-97.789416)
Datum:WGS 1984
Elevation:1167 ft (356 m)
Variation:3.79E (WMM2015v2 magnetic declination)
-0.09 annual change
Runways:2
Longest:8614 × 100 ft (2626 × 30.5 m), paved

Time
Time Zone:UTC-6 (DST-5)
Local Time:

Weather
METAR:KWDG 041345Z 34021G25KT 4SM BR OVC007 05/04 A2980

Related Locations
Nearby:
Farthest:RRG: 10821 mi / 17414 km
Plaine Corail [Sir Gatan Duval Airport (Plaine Corail Airport)], Rodrigues Island, MU

Find:

   beyond  
but within

Other Information
Maps:
Delays:
NOTAMs:
Links:
Sources:

  
  • flag of United States
  • flag of Oklahoma
  

Airport Diagram

Airport diagram for WDG

Airport diagram PDF from FAA

Sectional Chart

Flight Planning
at skyvector.com

Satellite Image

Google Maps Satellite view

 

Copyright © 2004-2019 Karl L. Swartz. All rights reserved.
The Great Circle Mapper name and logo are trademarks of the Great Circle Mapper.
All other trademarks mentioned herein belong to their respective owners.
Please see credits for attibutions and further copyright information.

  Follow gcmap on Facebook Follow gcmap on Twitter GCmap on LinkedIn

hCard Microformat

Geo Microformat